Time;durP1;ratioP1;P1;durP2;ratioP2;P2;SDS_P1;SDS_P2;PMS_P1;PMS_P2;Temp;Humidity;BMP_temperature;BMP_pressure;BME280_temperature;BME280_humidity;BME280_pressure;Samples;Min_cycle;Max_cycle;Signal;HPM_P1;HPM_P2
2023/06/08 00:00:50;;;;;;;43.37;23.70;;;11.70;86.70;;;;;;5012451;28;20181;-87
2023/06/08 00:03:18;;;;;;;36.67;24.90;;;11.80;87.00;;;;;;5013602;28;20193;-86
2023/06/08 00:05:48;;;;;;;41.33;27.23;;;11.80;86.80;;;;;;5013501;28;20173;-87
2023/06/08 00:08:14;;;;;;;46.70;30.60;;;11.80;86.90;;;;;;5012362;28;20264;-87
2023/06/08 00:10:44;;;;;;;52.67;34.30;;;11.70;86.90;;;;;;5012269;28;20223;-87
2023/06/08 00:13:10;;;;;;;44.27;31.43;;;11.70;87.00;;;;;;5013465;28;20208;-86
2023/06/08 00:15:36;;;;;;;44.57;31.83;;;11.70;87.30;;;;;;5013352;28;20528;-87
2023/06/08 00:18:02;;;;;;;43.70;32.33;;;11.70;87.30;;;;;;5013598;28;20181;-87
2023/06/08 00:20:28;;;;;;;49.20;35.17;;;11.80;87.20;;;;;;5013327;28;20632;-87
2023/06/08 00:22:54;;;;;;;55.30;36.53;;;11.80;87.00;;;;;;5012106;28;20621;-87
2023/06/08 00:25:20;;;;;;;59.80;36.57;;;11.90;86.90;;;;;;5013314;28;20243;-87
2023/06/08 00:27:46;;;;;;;48.53;33.83;;;12.00;86.50;;;;;;5013255;28;20204;-87
2023/06/08 00:30:13;;;;;;;55.30;35.40;;;12.00;86.40;;;;;;5012070;28;20635;-87
2023/06/08 00:32:39;;;;;;;48.47;35.00;;;12.00;86.20;;;;;;5013191;28;20303;-87
2023/06/08 00:35:05;;;;;;;50.17;35.67;;;12.00;86.20;;;;;;5012067;28;20277;-87
2023/06/08 00:37:31;;;;;;;45.97;32.57;;;12.00;86.00;;;;;;5011873;28;20236;-87
2023/06/08 00:39:57;;;;;;;49.13;33.63;;;12.10;85.90;;;;;;5013115;28;20177;-87
2023/06/08 00:42:22;;;;;;;45.33;32.77;;;12.00;85.80;;;;;;5013129;28;20204;-87
2023/06/08 00:44:48;;;;;;;46.27;31.63;;;11.90;85.70;;;;;;5012020;28;20173;-87
2023/06/08 00:47:13;;;;;;;47.70;33.50;;;12.00;85.70;;;;;;5011882;28;20648;-87
2023/06/08 00:49:39;;;;;;;46.53;30.80;;;12.10;85.60;;;;;;5011890;28;20619;-87
2023/06/08 00:52:07;;;;;;;39.70;29.10;;;12.00;85.40;;;;;;5011773;28;20200;-86
2023/06/08 00:54:32;;;;;;;33.07;26.03;;;12.00;85.30;;;;;;5013307;28;20208;-87
2023/06/08 00:57:00;;;;;;;34.20;23.90;;;12.00;84.90;;;;;;5011720;28;20249;-87
2023/06/08 00:59:31;;;;;;;29.73;23.10;;;12.10;84.80;;;;;;5015481;28;20260;-87
2023/06/08 01:01:57;;;;;;;39.53;25.27;;;12.10;84.80;;;;;;5015661;28;20194;-86
2023/06/08 01:04:23;;;;;;;32.87;25.70;;;12.20;84.80;;;;;;5016941;28;20177;-87
2023/06/08 01:06:54;;;;;;;35.57;25.60;;;12.00;84.60;;;;;;5016933;28;20174;-87
2023/06/08 01:09:29;;;;;;;34.77;26.33;;;12.20;84.80;;;;;;5015620;28;20230;-87
2023/06/08 01:12:03;;;;;;;38.63;26.73;;;12.10;84.60;;;;;;5015309;28;20209;-87
2023/06/08 01:14:55;;;;;;;38.57;25.30;;;12.00;84.70;;;;;;5017017;28;20195;-87
2023/06/08 01:17:27;;;;;;;41.53;28.30;;;12.00;84.90;;;;;;5016699;28;20204;-87
2023/06/08 01:20:20;;;;;;;38.30;28.60;;;11.90;85.00;;;;;;5016550;28;20208;-86
2023/06/08 01:23:10;;;;;;;37.30;28.77;;;11.90;85.20;;;;;;5016502;28;20197;-87
2023/06/08 01:25:38;;;;;;;37.90;28.17;;;11.90;85.50;;;;;;5015208;28;20551;-87
2023/06/08 01:28:12;;;;;;;45.00;29.20;;;11.90;85.40;;;;;;5015107;28;20571;-87
2023/06/08 01:30:39;;;;;;;42.30;30.30;;;11.90;85.30;;;;;;5015222;28;20235;-87
2023/06/08 01:33:05;;;;;;;38.97;30.33;;;11.80;85.30;;;;;;5014903;28;20283;-87
2023/06/08 01:35:31;;;;;;;41.27;30.07;;;11.80;85.10;;;;;;5016206;28;20375;-87
2023/06/08 01:38:01;;;;;;;39.57;29.60;;;11.80;85.10;;;;;;5014786;28;20197;-87
2023/06/08 01:40:35;;;;;;;40.33;28.70;;;11.90;85.20;;;;;;5014914;28;20173;-87
2023/06/08 01:43:02;;;;;;;36.73;27.97;;;11.80;85.00;;;;;;5016020;28;20216;-87
2023/06/08 01:45:32;;;;;;;34.10;25.50;;;11.80;85.10;;;;;;5016171;28;20551;-87
2023/06/08 01:48:02;;;;;;;33.30;26.07;;;11.80;85.20;;;;;;5015362;28;20170;-87
2023/06/08 01:50:31;;;;;;;39.60;27.53;;;11.80;85.20;;;;;;5014824;28;20174;-87
2023/06/08 01:52:58;;;;;;;35.17;26.70;;;11.70;85.20;;;;;;5014592;28;20201;-86
2023/06/08 01:55:24;;;;;;;37.17;25.83;;;11.80;85.40;;;;;;5014709;28;20185;-87
2023/06/08 01:57:50;;;;;;;33.87;26.23;;;11.70;85.20;;;;;;5015111;28;20211;-87
2023/06/08 02:00:17;;;;;;;31.93;26.67;;;11.70;85.40;;;;;;5015818;28;20181;-87
2023/06/08 02:02:44;;;;;;;40.67;27.93;;;11.70;85.50;;;;;;5015636;28;20616;-87
2023/06/08 02:05:11;;;;;;;41.13;28.20;;;11.60;85.60;;;;;;5015687;28;20176;-87
2023/06/08 02:07:41;;;;;;;38.80;24.87;;;11.60;85.80;;;;;;5015626;28;20570;-87
2023/06/08 02:10:08;;;;;;;34.93;23.43;;;11.60;85.80;;;;;;5015208;28;20201;-86
2023/06/08 02:12:33;;;;;;;30.07;25.87;;;11.70;85.80;;;;;;5015483;28;20777;-87
2023/06/08 02:14:59;;;;;;;33.27;26.17;;;11.70;85.80;;;;;;5014243;28;20260;-87
2023/06/08 02:17:27;;;;;;;42.80;26.60;;;11.80;85.70;;;;;;5014149;28;20663;-87
2023/06/08 02:19:54;;;;;;;36.10;25.47;;;11.80;86.00;;;;;;5014200;28;20281;-86
2023/06/08 02:22:20;;;;;;;40.27;26.93;;;11.80;85.60;;;;;;5014054;28;20201;-86
2023/06/08 02:24:46;;;;;;;41.97;27.10;;;11.70;85.60;;;;;;5014048;28;20180;-87
2023/06/08 02:27:13;;;;;;;42.93;27.57;;;11.80;85.50;;;;;;5013962;28;20276;-87
2023/06/08 02:29:39;;;;;;;47.33;29.80;;;11.80;85.50;;;;;;5015219;28;20637;-87
2023/06/08 02:32:06;;;;;;;40.40;27.60;;;11.80;85.50;;;;;;5015014;28;20204;-86
2023/06/08 02:34:31;;;;;;;49.83;31.63;;;11.90;85.40;;;;;;5013923;28;20208;-87
2023/06/08 02:36:57;;;;;;;46.37;30.83;;;11.80;85.40;;;;;;5015044;28;20679;-87
2023/06/08 02:39:23;;;;;;;46.07;29.73;;;11.80;85.30;;;;;;5013799;28;20308;-87
2023/06/08 02:41:48;;;;;;;47.43;28.63;;;11.80;85.30;;;;;;5014923;28;20673;-86
2023/06/08 02:44:14;;;;;;;49.53;31.00;;;11.90;85.30;;;;;;5013632;28;20137;-87
2023/06/08 02:46:40;;;;;;;42.33;31.40;;;11.90;85.30;;;;;;5015101;28;20180;-87
2023/06/08 02:49:05;;;;;;;45.27;31.50;;;11.90;85.30;;;;;;5013671;28;20186;-87
2023/06/08 02:51:31;;;;;;;48.93;31.67;;;11.80;85.40;;;;;;5014727;28;20185;-86
2023/06/08 02:53:56;;;;;;;46.40;30.03;;;11.80;85.60;;;;;;5014724;28;20552;-86
2023/06/08 02:56:24;;;;;;;58.30;32.97;;;11.80;85.60;;;;;;5013440;28;20296;-87
2023/06/08 02:58:49;;;;;;;50.63;32.00;;;11.90;85.50;;;;;;5014675;28;20170;-86
2023/06/08 03:01:15;;;;;;;45.93;31.47;;;11.90;85.40;;;;;;5014646;28;20518;-87
2023/06/08 03:03:42;;;;;;;43.83;30.63;;;11.80;85.40;;;;;;5014480;28;20213;-87
2023/06/08 03:06:09;;;;;;;52.87;32.30;;;11.80;85.40;;;;;;5013411;28;20236;-87
2023/06/08 03:08:36;;;;;;;46.87;30.00;;;11.90;85.40;;;;;;5013439;28;20185;-87
2023/06/08 03:11:02;;;;;;;48.73;32.33;;;11.80;85.40;;;;;;5013324;28;20243;-87
2023/06/08 03:13:27;;;;;;;44.73;31.67;;;11.80;85.50;;;;;;5013320;28;20220;-87
2023/06/08 03:15:53;;;;;;;46.03;31.57;;;11.80;85.70;;;;;;5014474;28;20184;-86
2023/06/08 03:18:18;;;;;;;49.40;31.00;;;11.80;85.60;;;;;;5014299;28;20173;-87
2023/06/08 03:20:47;;;;;;;50.33;32.30;;;11.80;85.60;;;;;;5014182;28;20635;-87
2023/06/08 03:23:13;;;;;;;57.40;34.90;;;11.80;85.50;;;;;;5014360;28;20552;-86
2023/06/08 03:25:39;;;;;;;51.93;33.10;;;11.70;85.70;;;;;;5012963;28;20173;-87
2023/06/08 03:28:04;;;;;;;53.57;34.33;;;11.70;86.00;;;;;;5013843;28;20177;-87
2023/06/08 03:30:30;;;;;;;48.13;33.07;;;11.60;86.20;;;;;;5012957;28;20244;-87
2023/06/08 03:32:56;;;;;;;54.57;34.63;;;11.60;86.30;;;;;;5013330;28;20263;-87
2023/06/08 03:35:21;;;;;;;47.17;31.97;;;11.50;86.30;;;;;;5012892;28;20268;-87
2023/06/08 03:37:47;;;;;;;48.63;32.43;;;11.60;86.40;;;;;;5012677;28;20205;-87
2023/06/08 03:40:13;;;;;;;47.97;31.47;;;11.70;86.30;;;;;;5012622;28;20211;-87
2023/06/08 03:42:38;;;;;;;50.33;33.13;;;11.70;86.30;;;;;;5012593;28;20197;-87
2023/06/08 03:45:04;;;;;;;46.53;32.43;;;11.70;86.20;;;;;;5013907;28;20192;-87
2023/06/08 03:47:31;;;;;;;45.70;31.93;;;11.70;86.20;;;;;;5012604;28;20212;-87
2023/06/08 03:49:57;;;;;;;45.33;31.00;;;11.80;86.10;;;;;;5012549;28;20211;-87
2023/06/08 03:52:22;;;;;;;49.03;31.57;;;11.80;85.80;;;;;;5012494;28;20200;-86
2023/06/08 03:54:48;;;;;;;51.03;34.53;;;11.80;85.90;;;;;;5012491;28;20184;-86
2023/06/08 03:57:13;;;;;;;48.37;33.57;;;11.80;85.80;;;;;;5012385;28;20220;-87
2023/06/08 03:59:39;;;;;;;49.43;33.20;;;11.90;85.70;;;;;;5013696;28;20674;-87
2023/06/08 04:02:05;;;;;;;58.67;32.63;;;11.80;85.80;;;;;;5012315;28;20679;-87
2023/06/08 04:04:30;;;;;;;48.37;32.50;;;11.90;85.80;;;;;;5013550;28;20177;-87
2023/06/08 04:07:00;;;;;;;49.03;32.20;;;11.90;85.60;;;;;;5012430;28;20276;-87
2023/06/08 04:09:29;;;;;;;47.53;32.17;;;11.90;85.60;;;;;;5013516;28;20244;-87
2023/06/08 04:11:56;;;;;;;56.90;33.67;;;11.90;85.60;;;;;;5011885;28;20201;-87
2023/06/08 04:14:22;;;;;;;52.27;35.03;;;12.00;85.60;;;;;;5012865;28;20177;-87
2023/06/08 04:16:47;;;;;;;48.57;33.77;;;12.00;85.70;;;;;;5012031;28;20224;-87
2023/06/08 04:19:13;;;;;;;50.77;32.70;;;12.00;85.60;;;;;;5012467;28;20184;-87
2023/06/08 04:21:39;;;;;;;48.83;32.67;;;11.90;85.50;;;;;;5012011;28;20273;-86
2023/06/08 04:24:05;;;;;;;53.53;32.70;;;11.90;85.70;;;;;;5013354;28;20169;-87
2023/06/08 04:26:30;;;;;;;49.77;32.77;;;11.90;85.80;;;;;;5012096;28;20189;-86
2023/06/08 04:28:56;;;;;;;45.80;33.67;;;11.90;85.80;;;;;;5012113;28;20174;-87
2023/06/08 04:31:21;;;;;;;48.40;34.00;;;11.80;86.00;;;;;;5012603;28;20181;-87
2023/06/08 04:33:47;;;;;;;47.90;30.93;;;11.80;85.90;;;;;;5017305;28;20564;-87
2023/06/08 04:36:12;;;;;;;48.13;31.73;;;11.80;86.00;;;;;;5016138;28;20208;-87
2023/06/08 04:38:38;;;;;;;47.13;30.93;;;11.90;86.10;;;;;;5017309;28;20257;-87
2023/06/08 04:41:07;;;;;;;42.17;29.13;;;11.90;85.80;;;;;;5017263;28;20590;-87
2023/06/08 04:43:33;;;;;;;47.97;28.50;;;11.90;86.10;;;;;;5015905;28;20189;-87
2023/06/08 04:45:59;;;;;;;44.37;27.13;;;11.90;85.90;;;;;;5016224;28;20181;-87
2023/06/08 04:48:28;;;;;;;48.37;29.40;;;12.00;85.90;;;;;;5015896;28;20553;-87
2023/06/08 04:51:02;;;;;;;46.07;35.00;;;12.10;85.80;;;;;;5017284;28;20177;-87
2023/06/08 04:53:33;;;;;;;46.20;34.77;;;12.20;85.70;;;;;;5016906;28;20189;-87
2023/06/08 04:56:01;;;;;;;48.00;34.03;;;12.20;85.60;;;;;;5015755;28;20653;-87
2023/06/08 04:58:28;;;;;;;43.93;32.80;;;12.20;85.40;;;;;;5015744;28;20232;-87
2023/06/08 05:00:54;;;;;;;47.80;33.23;;;12.20;85.30;;;;;;5016960;28;20180;-87
2023/06/08 05:03:23;;;;;;;45.07;32.77;;;12.30;85.30;;;;;;5015665;28;20197;-87
2023/06/08 05:05:50;;;;;;;42.70;33.77;;;12.30;85.10;;;;;;5015725;28;20177;-87
2023/06/08 05:08:15;;;;;;;44.27;32.10;;;12.20;85.00;;;;;;5015922;28;20228;-87
2023/06/08 05:10:41;;;;;;;50.83;32.33;;;12.20;85.10;;;;;;5020160;28;20309;-87
2023/06/08 05:13:06;;;;;;;49.67;31.57;;;12.20;85.10;;;;;;5015265;28;20213;-87
2023/06/08 05:15:32;;;;;;;46.63;33.57;;;12.30;85.20;;;;;;5015405;28;20199;-87
2023/06/08 05:17:58;;;;;;;53.57;35.47;;;12.40;85.10;;;;;;5015357;28;20197;-87
2023/06/08 05:20:26;;;;;;;49.97;35.40;;;12.40;84.90;;;;;;5016551;28;20227;-87
2023/06/08 05:22:53;;;;;;;45.07;34.63;;;12.40;84.90;;;;;;5015116;28;20208;-87
2023/06/08 05:25:18;;;;;;;45.17;33.70;;;12.30;84.80;;;;;;5015211;28;20173;-87
2023/06/08 05:27:44;;;;;;;51.70;32.53;;;12.40;85.20;;;;;;5016530;28;20178;-87
2023/06/08 05:30:10;;;;;;;51.57;33.70;;;12.50;85.20;;;;;;5016438;28;20258;-87
2023/06/08 05:32:36;;;;;;;52.80;34.13;;;12.30;85.00;;;;;;5016210;28;20201;-87
2023/06/08 05:35:03;;;;;;;45.50;34.83;;;12.50;85.00;;;;;;5016813;28;20181;-87
2023/06/08 05:37:28;;;;;;;41.50;24.73;;;12.60;85.10;;;;;;5016157;28;20197;-87
2023/06/08 05:39:54;;;;;;;41.97;24.43;;;12.60;85.10;;;;;;5016385;28;20255;-87
2023/06/08 05:42:20;;;;;;;42.53;25.57;;;12.70;85.00;;;;;;5015677;28;20216;-87
2023/06/08 05:44:46;;;;;;;41.37;24.80;;;12.70;84.90;;;;;;5015042;28;20256;-87
2023/06/08 05:47:12;;;;;;;40.07;25.83;;;12.60;84.90;;;;;;5014751;28;20277;-87
2023/06/08 05:49:37;;;;;;;41.63;24.30;;;12.70;84.80;;;;;;5014749;28;20177;-87
2023/06/08 05:52:03;;;;;;;36.87;24.13;;;12.70;85.00;;;;;;5014724;28;20201;-87
2023/06/08 05:54:28;;;;;;;31.33;23.47;;;12.70;84.90;;;;;;5015196;28;20223;-87
2023/06/08 05:56:54;;;;;;;43.50;24.57;;;12.80;85.00;;;;;;5015802;28;20200;-86
2023/06/08 05:59:20;;;;;;;37.33;23.53;;;12.90;84.60;;;;;;5014564;28;20643;-87
2023/06/08 06:01:45;;;;;;;39.20;25.83;;;12.90;84.50;;;;;;5014439;28;20208;-87
2023/06/08 06:04:11;;;;;;;42.90;25.80;;;13.00;84.40;;;;;;5014531;28;20212;-86
2023/06/08 06:06:36;;;;;;;35.93;25.17;;;13.00;84.00;;;;;;5014413;28;20173;-87
2023/06/08 06:09:03;;;;;;;42.30;26.27;;;13.10;83.90;;;;;;5014358;28;20188;-87
2023/06/08 06:11:29;;;;;;;39.93;27.97;;;13.10;83.70;;;;;;5015534;28;20180;-86
2023/06/08 06:13:55;;;;;;;41.00;27.70;;;13.20;83.70;;;;;;5015375;28;20663;-87
2023/06/08 06:16:21;;;;;;;45.10;28.20;;;13.20;83.70;;;;;;5015416;28;20193;-87
2023/06/08 06:18:50;;;;;;;50.20;32.40;;;13.30;83.40;;;;;;5014307;28;20639;-87
2023/06/08 06:21:16;;;;;;;57.27;34.17;;;13.40;83.50;;;;;;5014420;28;20582;-87
2023/06/08 06:23:41;;;;;;;49.07;33.40;;;13.40;82.90;;;;;;5015334;28;20193;-87
2023/06/08 06:26:07;;;;;;;52.20;33.13;;;13.30;82.60;;;;;;5015304;28;20170;-87
2023/06/08 06:28:33;;;;;;;46.03;33.30;;;13.20;82.90;;;;;;5015295;28;20177;-87
2023/06/08 06:30:58;;;;;;;47.17;30.27;;;13.30;83.90;;;;;;5014290;28;20231;-86
2023/06/08 06:33:24;;;;;;;48.53;28.70;;;13.40;83.70;;;;;;5015076;28;20574;-87
2023/06/08 06:35:50;;;;;;;41.20;27.47;;;13.60;83.10;;;;;;5014180;28;20177;-87
2023/06/08 06:38:16;;;;;;;41.03;28.00;;;13.60;82.80;;;;;;5015040;28;20670;-87
2023/06/08 06:40:41;;;;;;;41.50;26.13;;;13.70;83.00;;;;;;5013743;28;20181;-87
2023/06/08 06:43:07;;;;;;;37.00;25.10;;;13.60;82.30;;;;;;5014998;28;20565;-87
2023/06/08 06:45:33;;;;;;;45.07;30.37;;;13.70;82.70;;;;;;5013639;28;20181;-87
2023/06/08 06:47:58;;;;;;;48.10;31.73;;;13.80;82.50;;;;;;5015317;28;20169;-87
2023/06/08 06:50:24;;;;;;;41.73;30.77;;;13.90;81.80;;;;;;5013773;28;20224;-86
2023/06/08 06:52:50;;;;;;;46.77;29.53;;;14.00;81.80;;;;;;5014888;28;20738;-87
2023/06/08 06:55:15;;;;;;;46.97;29.70;;;14.00;81.60;;;;;;5012496;28;20184;-87
2023/06/08 06:57:41;;;;;;;39.57;27.80;;;14.20;82.20;;;;;;5013495;28;20209;-87
2023/06/08 07:00:07;;;;;;;44.40;28.20;;;14.30;81.40;;;;;;5013326;28;20169;-87
2023/06/08 07:02:33;;;;;;;45.93;28.10;;;14.30;81.10;;;;;;5014518;28;20679;-87
2023/06/08 07:05:04;;;;;;;32.80;25.57;;;14.40;80.70;;;;;;5013428;28;20216;-87
2023/06/08 07:07:30;;;;;;;39.60;26.00;;;14.60;80.60;;;;;;5014526;28;20149;-87
2023/06/08 07:09:55;;;;;;;38.83;26.03;;;14.80;80.40;;;;;;5013295;28;20236;-87
2023/06/08 07:12:21;;;;;;;36.53;26.03;;;14.80;79.90;;;;;;5014628;28;20209;-87
2023/06/08 07:14:46;;;;;;;33.83;25.17;;;14.60;79.60;;;;;;5014535;28;20628;-87
2023/06/08 07:17:12;;;;;;;34.72;25.55;;;14.80;80.10;;;;;;5014259;28;20216;-87
2023/06/08 07:19:39;;;;;;;36.85;25.30;;;15.10;79.30;;;;;;5013103;28;20588;-87
2023/06/08 07:22:05;;;;;;;45.78;24.50;;;15.20;78.20;;;;;;5012986;28;20706;-87
2023/06/08 07:24:31;;;;;;;36.75;24.50;;;15.30;78.00;;;;;;5012978;28;20177;-87
2023/06/08 07:26:56;;;;;;;39.17;25.52;;;15.40;77.40;;;;;;5013173;28;20343;-87
2023/06/08 07:29:22;;;;;;;42.47;25.95;;;15.40;76.60;;;;;;5012795;28;20184;-87
2023/06/08 07:31:48;;;;;;;41.05;23.88;;;15.40;77.30;;;;;;5012943;28;20197;-87
2023/06/08 07:34:14;;;;;;;34.92;23.52;;;15.30;77.20;;;;;;5014080;28;20174;-87
2023/06/08 07:36:39;;;;;;;31.40;21.65;;;15.50;77.50;;;;;;5012723;28;20204;-87
2023/06/08 07:39:05;;;;;;;36.45;23.02;;;15.40;77.30;;;;;;5013904;28;20173;-87
2023/06/08 07:41:31;;;;;;;31.77;22.63;;;15.60;77.10;;;;;;5013994;28;20177;-87
2023/06/08 07:43:57;;;;;;;36.15;22.70;;;15.70;76.60;;;;;;5013883;28;20172;-87
2023/06/08 07:46:23;;;;;;;30.13;21.73;;;15.50;77.90;;;;;;5012564;28;20177;-87
2023/06/08 07:48:49;;;;;;;30.45;21.73;;;15.60;79.20;;;;;;5012659;28;20178;-87
2023/06/08 07:51:14;;;;;;;29.23;20.13;;;15.80;77.60;;;;;;5012575;28;20185;-87
2023/06/08 07:53:41;;;;;;;29.67;18.60;;;15.90;77.30;;;;;;5013758;28;20684;-87
2023/06/08 07:56:07;;;;;;;32.00;18.13;;;16.10;77.10;;;;;;5013707;28;20597;-87
2023/06/08 07:58:33;;;;;;;26.23;18.20;;;16.20;76.10;;;;;;5012498;28;20705;-87
2023/06/08 08:01:02;;;;;;;25.40;17.77;;;16.20;75.90;;;;;;5012390;28;20272;-87
2023/06/08 08:03:29;;;;;;;25.23;16.08;;;16.30;76.00;;;;;;5012396;28;20193;-87
2023/06/08 08:05:55;;;;;;;32.30;16.40;;;16.40;75.70;;;;;;5012691;28;20631;-87
2023/06/08 08:08:20;;;;;;;27.40;15.43;;;16.60;75.40;;;;;;5012273;28;20272;-87
2023/06/08 08:10:47;;;;;;;23.33;16.05;;;16.40;75.30;;;;;;5013516;28;20173;-88
2023/06/08 08:13:13;;;;;;;27.17;18.42;;;16.60;75.80;;;;;;5013251;28;20703;-87
2023/06/08 08:15:42;;;;;;;24.30;18.23;;;16.90;74.50;;;;;;5012275;28;20183;-87
2023/06/08 08:18:07;;;;;;;27.50;17.88;;;17.00;73.90;;;;;;5013357;28;20738;-88
2023/06/08 08:20:33;;;;;;;23.17;16.70;;;17.10;72.80;;;;;;5013637;28;20256;-87
2023/06/08 08:22:59;;;;;;;23.50;15.27;;;17.20;73.00;;;;;;5013364;28;20276;-87
2023/06/08 08:25:24;;;;;;;21.83;14.07;;;17.20;74.20;;;;;;5012082;28;20272;-87
2023/06/08 08:27:50;;;;;;;25.90;14.73;;;17.30;73.50;;;;;;5013272;28;20183;-87
2023/06/08 08:30:16;;;;;;;20.85;14.38;;;17.40;72.80;;;;;;5011927;28;20231;-87
2023/06/08 08:32:41;;;;;;;18.08;13.90;;;17.50;73.70;;;;;;5011901;28;20292;-88
2023/06/08 08:35:10;;;;;;;24.30;15.38;;;17.70;72.70;;;;;;5013232;28;20188;-87
2023/06/08 08:37:35;;;;;;;22.63;15.02;;;17.60;71.60;;;;;;5011927;28;20200;-87
2023/06/08 08:40:01;;;;;;;18.17;13.75;;;17.50;72.30;;;;;;5013576;28;20176;-87
2023/06/08 08:42:30;;;;;;;24.48;14.73;;;17.50;72.10;;;;;;5013079;28;20698;-87
2023/06/08 08:44:56;;;;;;;20.55;13.63;;;18.00;71.20;;;;;;5013451;28;20161;-87
2023/06/08 08:47:29;;;;;;;24.17;14.00;;;18.30;70.50;;;;;;5011945;28;20189;-88
2023/06/08 08:50:06;;;;;;;16.73;13.30;;;18.50;69.00;;;;;;5012141;28;20552;-88
2023/06/08 08:52:34;;;;;;;25.88;15.38;;;18.20;68.10;;;;;;5013059;28;20192;-87
2023/06/08 08:55:00;;;;;;;18.75;15.13;;;18.60;68.00;;;;;;5011839;28;20174;-88
2023/06/08 08:57:28;;;;;;;21.45;16.17;;;18.70;66.50;;;;;;5012530;28;20193;-88
2023/06/08 08:59:54;;;;;;;21.95;16.10;;;18.80;65.60;;;;;;5011813;28;20182;-88
2023/06/08 09:02:20;;;;;;;18.83;15.43;;;18.90;66.20;;;;;;5013216;28;20235;-88
2023/06/08 09:04:46;;;;;;;18.15;16.15;;;18.90;66.80;;;;;;5011789;28;20174;-87
2023/06/08 09:07:16;;;;;;;21.55;16.80;;;19.20;65.10;;;;;;5011751;28;20180;-87
2023/06/08 09:10:14;;;;;;;21.08;16.60;;;18.70;66.00;;;;;;5013229;28;20224;-87
2023/06/08 09:12:41;;;;;;;22.23;17.27;;;19.10;65.00;;;;;;5011652;28;20209;-88
2023/06/08 09:15:08;;;;;;;21.13;17.08;;;19.50;65.10;;;;;;5012841;28;20181;-88
2023/06/08 09:17:40;;;;;;;26.83;17.85;;;19.50;65.90;;;;;;5011474;28;20687;-88
2023/06/08 09:20:10;;;;;;;21.25;17.55;;;19.60;63.80;;;;;;5014795;28;20200;-88
2023/06/08 09:22:36;;;;;;;24.58;17.40;;;19.50;63.60;;;;;;5015227;28;20567;-88
2023/06/08 09:25:06;;;;;;;19.55;17.48;;;19.80;63.50;;;;;;5016388;28;20260;-88
2023/06/08 09:27:32;;;;;;;22.73;17.45;;;19.80;63.50;;;;;;5016711;28;20183;-87
2023/06/08 09:30:00;;;;;;;20.40;17.17;;;19.90;64.80;;;;;;5015133;28;20534;-88
2023/06/08 09:32:33;;;;;;;18.08;15.77;;;20.10;63.50;;;;;;5015097;28;20702;-88
2023/06/08 09:35:03;;;;;;;19.95;15.50;;;20.20;63.20;;;;;;5016309;28;20541;-88
2023/06/08 09:37:33;;;;;;;18.77;16.83;;;20.40;61.80;;;;;;5016109;28;20656;-88
2023/06/08 09:40:00;;;;;;;22.90;16.17;;;20.20;63.40;;;;;;5015015;28;20178;-88
2023/06/08 09:42:46;;;;;;;22.55;16.73;;;20.50;62.40;;;;;;5014942;28;20248;-87
2023/06/08 09:45:13;;;;;;;21.80;17.27;;;20.60;61.20;;;;;;5015713;28;20162;-88
2023/06/08 09:47:40;;;;;;;22.02;16.00;;;21.00;60.00;;;;;;5014827;28;20552;-88
2023/06/08 09:50:07;;;;;;;20.95;16.45;;;21.00;59.70;;;;;;5016168;28;20235;-88
2023/06/08 09:52:34;;;;;;;21.88;17.75;;;21.30;58.60;;;;;;5014699;28;20209;-88
2023/06/08 09:55:00;;;;;;;21.83;18.83;;;21.10;60.00;;;;;;5016456;28;20180;-88
2023/06/08 09:57:28;;;;;;;22.80;18.20;;;21.20;60.00;;;;;;5014611;28;20197;-88
2023/06/08 10:00:08;;;;;;;22.33;17.17;;;21.10;59.50;;;;;;5014727;28;20548;-88
2023/06/08 10:02:40;;;;;;;21.10;16.95;;;21.20;60.10;;;;;;5014774;28;20189;-88
2023/06/08 10:05:10;;;;;;;20.23;17.25;;;21.30;58.60;;;;;;5014643;28;20600;-88
2023/06/08 10:07:37;;;;;;;21.52;17.63;;;21.30;59.10;;;;;;5015705;28;20184;-88
2023/06/08 10:10:16;;;;;;;23.48;17.52;;;21.60;59.90;;;;;;5015629;28;20184;-88
2023/06/08 10:12:42;;;;;;;20.00;15.70;;;21.80;58.00;;;;;;5014528;28;20221;-88
2023/06/08 10:15:09;;;;;;;17.33;15.50;;;21.60;58.30;;;;;;5015576;28;20251;-88
2023/06/08 10:17:36;;;;;;;20.98;16.23;;;21.60;56.50;;;;;;5015983;28;20186;-88
2023/06/08 10:20:03;;;;;;;19.75;16.98;;;21.50;58.80;;;;;;5014318;28;20585;-88
2023/06/08 10:22:29;;;;;;;17.35;15.65;;;21.50;60.40;;;;;;5015333;28;20635;-88
2023/06/08 10:24:55;;;;;;;20.48;15.90;;;22.20;57.20;;;;;;5014179;28;20212;-88
2023/06/08 10:27:23;;;;;;;20.08;16.40;;;22.00;56.10;;;;;;5015379;28;20169;-88
2023/06/08 10:29:58;;;;;;;20.48;15.95;;;21.80;56.00;;;;;;5013777;28;20555;-88
2023/06/08 10:32:34;;;;;;;18.10;16.40;;;22.40;55.60;;;;;;5015252;28;20201;-88
2023/06/08 10:35:04;;;;;;;20.85;17.00;;;22.80;53.90;;;;;;5015242;28;20534;-88
2023/06/08 10:37:31;;;;;;;18.50;16.60;;;22.90;54.30;;;;;;5013981;28;20570;-88
2023/06/08 10:39:58;;;;;;;18.67;16.75;;;22.80;54.80;;;;;;5014140;28;20705;-88
2023/06/08 10:42:24;;;;;;;21.50;16.77;;;22.90;54.80;;;;;;5014886;28;20208;-88
2023/06/08 10:44:54;;;;;;;19.30;16.52;;;23.30;53.20;;;;;;5013851;28;20181;-88
2023/06/08 10:47:20;;;;;;;19.50;17.48;;;23.30;53.20;;;;;;5014973;28;20177;-88
2023/06/08 10:49:51;;;;;;;18.88;17.02;;;23.30;52.40;;;;;;5013798;28;20178;-88
2023/06/08 10:52:19;;;;;;;19.40;17.50;;;23.20;51.10;;;;;;5013584;28;20198;-88
2023/06/08 10:55:11;;;;;;;18.40;16.55;;;22.90;52.50;;;;;;5014808;28;20733;-88
2023/06/08 10:57:46;;;;;;;18.30;16.52;;;23.40;50.50;;;;;;5013435;28;20202;-88
2023/06/08 11:00:31;;;;;;;21.13;17.25;;;23.70;50.30;;;;;;5014712;28;20168;-88
2023/06/08 11:03:01;;;;;;;18.80;16.83;;;23.90;47.80;;;;;;5014583;28;20339;-88
2023/06/08 11:05:31;;;;;;;19.50;17.48;;;23.40;50.70;;;;;;5014889;28;20232;-88
2023/06/08 11:07:57;;;;;;;19.65;17.58;;;23.90;48.20;;;;;;5014947;28;20209;-88
2023/06/08 11:10:23;;;;;;;22.25;17.27;;;23.80;49.90;;;;;;5014524;28;20205;-88
2023/06/08 11:12:49;;;;;;;19.55;17.70;;;24.10;48.80;;;;;;5014303;28;20209;-88
2023/06/08 11:15:16;;;;;;;19.52;17.63;;;23.70;49.70;;;;;;5014237;28;20272;-88
2023/06/08 11:17:56;;;;;;;19.10;17.40;;;23.70;50.40;;;;;;5014482;28;20614;-87
2023/06/08 11:20:28;;;;;;;19.48;17.33;;;23.90;49.80;;;;;;5013269;28;20256;-88
2023/06/08 11:22:54;;;;;;;20.67;18.02;;;24.20;47.30;;;;;;5013030;28;20194;-88
2023/06/08 11:25:24;;;;;;;20.25;18.08;;;24.20;47.70;;;;;;5013095;28;20173;-88
2023/06/08 11:27:55;;;;;;;20.27;17.42;;;24.10;47.70;;;;;;5014286;28;20154;-88
2023/06/08 11:30:22;;;;;;;19.98;18.02;;;24.30;48.30;;;;;;5013037;28;20173;-88
2023/06/08 11:32:50;;;;;;;19.70;17.83;;;24.50;47.30;;;;;;5012855;28;20205;-88
2023/06/08 11:35:18;;;;;;;21.25;18.52;;;24.60;46.60;;;;;;5014112;28;20184;-87
2023/06/08 11:37:44;;;;;;;21.38;18.15;;;24.20;47.60;;;;;;5012716;28;20204;-88
2023/06/08 11:40:14;;;;;;;19.55;17.75;;;24.00;49.00;;;;;;5014113;28;20169;-88
2023/06/08 11:42:41;;;;;;;20.17;18.45;;;24.20;48.30;;;;;;5012189;28;20284;-88
2023/06/08 11:45:09;;;;;;;20.33;18.17;;;24.20;46.60;;;;;;5012692;28;20170;-88
2023/06/08 11:47:35;;;;;;;20.55;17.60;;;24.30;48.40;;;;;;5013838;28;20597;-87
2023/06/08 11:50:03;;;;;;;20.30;18.02;;;24.60;47.50;;;;;;5012710;28;20275;-88
2023/06/08 11:52:30;;;;;;;19.08;17.15;;;24.50;46.70;;;;;;5012890;28;20768;-88
2023/06/08 11:55:01;;;;;;;19.92;17.88;;;24.30;48.40;;;;;;5012506;28;20177;-88
2023/06/08 11:57:44;;;;;;;19.70;17.70;;;24.70;46.70;;;;;;5013773;28;20675;-88
2023/06/08 12:00:14;;;;;;;20.75;18.67;;;24.80;45.60;;;;;;5012505;28;20311;-88
2023/06/08 12:02:40;;;;;;;19.75;17.73;;;24.50;46.60;;;;;;5013196;28;20185;-88
2023/06/08 12:05:12;;;;;;;21.75;19.38;;;24.40;48.00;;;;;;5013566;28;20169;-88
2023/06/08 12:07:38;;;;;;;20.75;18.83;;;24.90;48.00;;;;;;5012655;28;20169;-88
2023/06/08 12:10:05;;;;;;;20.02;18.27;;;24.80;46.70;;;;;;5013783;28;20260;-88
2023/06/08 12:12:31;;;;;;;20.73;18.80;;;25.10;47.30;;;;;;5013390;28;20208;-88
2023/06/08 12:14:57;;;;;;;21.60;19.42;;;25.50;45.40;;;;;;5013701;28;20204;-88
2023/06/08 12:17:27;;;;;;;23.90;18.88;;;25.50;47.20;;;;;;5013400;28;20577;-88
2023/06/08 12:19:53;;;;;;;20.45;18.35;;;25.50;46.40;;;;;;5012226;28;20173;-88
2023/06/08 12:22:19;;;;;;;21.00;18.90;;;25.70;46.90;;;;;;5012124;28;20201;-88
2023/06/08 12:24:45;;;;;;;20.45;18.58;;;24.90;46.10;;;;;;5012254;28;20220;-88
2023/06/08 12:27:10;;;;;;;20.73;18.92;;;25.40;47.00;;;;;;5013378;28;20244;-88
2023/06/08 12:29:37;;;;;;;24.70;18.80;;;25.70;46.50;;;;;;5012145;28;20599;-88